createdAt,value
2023-03-16T00:00:22.037Z,100331.56
2023-03-16T00:02:49.805Z,100330.78
2023-03-16T00:05:17.929Z,100323.66
2023-03-16T00:07:46.958Z,100341.41
2023-03-16T00:10:14.738Z,100339.03
2023-03-16T00:12:43.563Z,100338.31
2023-03-16T00:15:11.792Z,100335.81
2023-03-16T00:17:39.435Z,100333.50
2023-03-16T00:20:08.334Z,100329.97
2023-03-16T00:22:36.106Z,100331.19
2023-03-16T00:25:05.886Z,100337.50
2023-03-16T00:27:33.561Z,100331.69
2023-03-16T00:30:03.065Z,100338.22
2023-03-16T00:32:34.192Z,100340.41
2023-03-16T00:35:02.859Z,100323.69
2023-03-16T00:37:32.736Z,100331.78
2023-03-16T00:40:01.229Z,100319.34
2023-03-16T00:42:34.050Z,100322.47
2023-03-16T00:45:02.154Z,100250.78
2023-03-16T00:47:31.744Z,100315.53
2023-03-16T00:50:00.945Z,100310.22
2023-03-16T00:52:30.050Z,100314.06
2023-03-16T00:54:58.780Z,100308.13
2023-03-16T00:57:30.118Z,100308.84
2023-03-16T01:00:00.247Z,100302.22
2023-03-16T01:02:28.347Z,100302.53
2023-03-16T01:04:56.285Z,100304.22
2023-03-16T01:07:24.046Z,100305.72
2023-03-16T01:09:51.813Z,100304.94
2023-03-16T01:12:20.531Z,100305.13
2023-03-16T01:14:48.697Z,100302.81
2023-03-16T01:17:19.117Z,100277.38
2023-03-16T01:19:47.401Z,100280.53
2023-03-16T01:22:16.303Z,100288.06
2023-03-16T01:24:45.294Z,100285.25
2023-03-16T01:27:14.706Z,100295.06
2023-03-16T01:29:44.338Z,100293.88
2023-03-16T01:32:13.048Z,100304.06
2023-03-16T01:34:42.478Z,100297.19
2023-03-16T01:37:12.330Z,100302.13
2023-03-16T01:39:51.080Z,100286.97
2023-03-16T01:42:18.892Z,100297.28
2023-03-16T01:44:51.722Z,100298.00
2023-03-16T01:47:19.430Z,100298.91
2023-03-16T01:49:48.556Z,100293.66
2023-03-16T01:52:20.133Z,100289.06
2023-03-16T01:54:51.035Z,100284.88
2023-03-16T01:57:20.910Z,100276.75
2023-03-16T01:59:53.661Z,100270.50
2023-03-16T02:02:25.020Z,100268.41
2023-03-16T02:04:59.653Z,100259.50
2023-03-16T02:07:29.374Z,100261.59
2023-03-16T02:10:02.394Z,100259.19
2023-03-16T02:12:30.991Z,100261.38
2023-03-16T02:15:00.908Z,100262.50
2023-03-16T02:17:31.910Z,100262.59
2023-03-16T02:20:18.119Z,100257.97
2023-03-16T02:22:49.904Z,100253.59
2023-03-16T02:25:19.585Z,100249.88
2023-03-16T02:27:57.880Z,100246.13
2023-03-16T02:30:27.712Z,100249.84
2023-03-16T02:33:05.588Z,100230.94
2023-03-16T02:35:34.061Z,100245.06
2023-03-16T02:38:03.280Z,100249.91
2023-03-16T02:40:36.439Z,100248.63
2023-03-16T02:43:10.824Z,100237.63
2023-03-16T02:45:48.045Z,100237.78
2023-03-16T02:48:23.700Z,100231.78
2023-03-16T02:50:54.083Z,100150.81
2023-03-16T02:53:21.848Z,100221.75
2023-03-16T02:55:49.760Z,100224.88
2023-03-16T02:58:18.576Z,100230.16
2023-03-16T03:00:48.943Z,100223.75
2023-03-16T03:03:18.338Z,100217.75
2023-03-16T03:05:46.007Z,100211.53
2023-03-16T03:08:14.667Z,100218.25
2023-03-16T03:10:42.622Z,100203.81
2023-03-16T03:13:12.239Z,100201.00
2023-03-16T03:15:40.876Z,100191.16
2023-03-16T03:18:14.609Z,100200.16
2023-03-16T03:20:42.646Z,100201.59
2023-03-16T03:23:11.277Z,100203.59
2023-03-16T03:25:38.957Z,100204.28
2023-03-16T03:28:06.735Z,100206.78
2023-03-16T03:30:34.574Z,100199.94
2023-03-16T03:33:02.778Z,100204.88
2023-03-16T03:35:32.679Z,100195.34
2023-03-16T03:38:00.433Z,100193.22
2023-03-16T03:40:29.793Z,100197.63
2023-03-16T03:43:01.395Z,100191.53
2023-03-16T03:45:30.764Z,100194.81
2023-03-16T03:47:58.583Z,100188.13
2023-03-16T03:50:26.826Z,100183.47
2023-03-16T03:53:20.907Z,100177.56
2023-03-16T03:56:11.426Z,100183.03
2023-03-16T03:58:40.113Z,100181.75
2023-03-16T04:01:07.909Z,100179.16
2023-03-16T04:03:35.656Z,100181.91
2023-03-16T04:06:03.480Z,100173.53
2023-03-16T04:08:33.765Z,100177.19
2023-03-16T04:11:01.678Z,100185.31
2023-03-16T04:13:29.893Z,100178.28
2023-03-16T04:15:58.972Z,100189.94
2023-03-16T04:18:30.375Z,100189.31
2023-03-16T04:20:58.075Z,100184.88
2023-03-16T04:23:26.704Z,100189.50
2023-03-16T04:25:56.159Z,100201.44
2023-03-16T04:28:26.463Z,100195.72
2023-03-16T04:30:54.875Z,100181.91
2023-03-16T04:33:34.672Z,100193.00
2023-03-16T04:36:03.390Z,100199.28
2023-03-16T04:38:33.627Z,100197.75
2023-03-16T04:41:04.979Z,100190.44
2023-03-16T04:43:36.384Z,100188.63
2023-03-16T04:46:11.004Z,100191.34
2023-03-16T04:48:39.281Z,100189.06
2023-03-16T04:51:07.613Z,100197.50
2023-03-16T04:53:39.224Z,100182.19
2023-03-16T04:56:19.275Z,100184.56
2023-03-16T04:58:51.833Z,100114.91
2023-03-16T05:01:21.982Z,100192.81
2023-03-16T05:03:52.808Z,100193.47
2023-03-16T05:06:21.391Z,100195.91
2023-03-16T05:08:49.151Z,100198.38
2023-03-16T05:11:19.233Z,100197.88
2023-03-16T05:13:54.741Z,100194.94
2023-03-16T05:16:22.492Z,100189.38
2023-03-16T05:18:52.811Z,100175.28
2023-03-16T05:21:20.496Z,100185.13
2023-03-16T05:23:58.337Z,100190.28
2023-03-16T05:26:27.339Z,100197.72
2023-03-16T05:28:56.233Z,100191.00
2023-03-16T05:31:27.238Z,100196.75
2023-03-16T05:33:59.240Z,100198.44
2023-03-16T05:36:26.919Z,100203.44
2023-03-16T05:38:59.322Z,100199.44
2023-03-16T05:41:38.926Z,100183.00
2023-03-16T05:44:33.441Z,100178.09
2023-03-16T05:47:18.624Z,100175.56
2023-03-16T05:49:51.407Z,100175.56
2023-03-16T05:52:40.322Z,100162.91
2023-03-16T05:55:17.439Z,100165.81
2023-03-16T05:57:51.087Z,100171.47
2023-03-16T06:00:20.741Z,100159.78
2023-03-16T06:02:57.072Z,100119.03
2023-03-16T06:05:30.375Z,100152.88
2023-03-16T06:07:58.305Z,100152.31
2023-03-16T06:10:27.906Z,100146.47
2023-03-16T06:12:59.509Z,100147.53
2023-03-16T06:15:30.364Z,100141.19
2023-03-16T06:18:00.826Z,100133.41
2023-03-16T06:20:29.312Z,100150.78
2023-03-16T06:22:57.781Z,100148.84
2023-03-16T06:25:26.398Z,100145.84
2023-03-16T06:27:55.188Z,100150.81
2023-03-16T06:30:24.556Z,100145.47
2023-03-16T06:32:52.848Z,100154.66
2023-03-16T06:35:21.245Z,100156.97
2023-03-16T06:38:05.010Z,100159.13
2023-03-16T06:40:55.972Z,100163.97
2023-03-16T06:43:24.614Z,100161.00
2023-03-16T06:45:54.362Z,100166.00
2023-03-16T06:48:23.721Z,100150.03
2023-03-16T06:50:51.583Z,100155.06
2023-03-16T06:53:25.956Z,100162.19
2023-03-16T06:55:54.898Z,100150.66
2023-03-16T06:58:22.997Z,100156.69
2023-03-16T07:00:51.704Z,100157.47
2023-03-16T07:03:21.867Z,100157.25
2023-03-16T07:05:55.642Z,100160.59
2023-03-16T07:08:24.249Z,100162.63
2023-03-16T07:10:52.295Z,100161.59
2023-03-16T07:13:20.204Z,100164.59
2023-03-16T07:15:52.140Z,100170.34
2023-03-16T07:18:22.617Z,100175.75
2023-03-16T07:20:50.566Z,100173.81
2023-03-16T07:23:18.222Z,100167.38
2023-03-16T07:25:46.089Z,100175.94
2023-03-16T07:28:16.657Z,100170.91
2023-03-16T07:30:56.675Z,100179.03
2023-03-16T07:33:34.663Z,100167.25
2023-03-16T07:36:06.455Z,100180.53
2023-03-16T07:38:39.927Z,100172.50
2023-03-16T07:41:07.741Z,100180.88
2023-03-16T07:43:36.495Z,100151.38
2023-03-16T07:46:04.228Z,100183.66
2023-03-16T07:48:33.471Z,100182.53
2023-03-16T07:51:03.549Z,100177.47
2023-03-16T07:53:32.129Z,100185.19
2023-03-16T07:56:14.309Z,100176.38
2023-03-16T07:58:45.361Z,100173.06
2023-03-16T08:01:13.156Z,100161.44
2023-03-16T08:03:42.241Z,100169.53
2023-03-16T08:06:10.764Z,100168.47
2023-03-16T08:08:39.103Z,100163.81
2023-03-16T08:11:07.592Z,100165.78
2023-03-16T08:13:46.916Z,100160.78
2023-03-16T08:16:14.983Z,100164.19
2023-03-16T08:18:46.378Z,100156.78
2023-03-16T08:21:15.870Z,100159.97
2023-03-16T08:23:49.327Z,100152.69
2023-03-16T08:26:19.825Z,100156.13
2023-03-16T08:28:51.798Z,100168.19
2023-03-16T08:31:21.207Z,100161.78
2023-03-16T08:34:08.316Z,100166.22
2023-03-16T08:36:43.703Z,100169.72
2023-03-16T08:39:13.166Z,100077.06
2023-03-16T08:41:46.005Z,100168.03
2023-03-16T08:44:29.640Z,100170.25
2023-03-16T08:46:57.471Z,100165.66
2023-03-16T08:49:27.214Z,100164.56
2023-03-16T08:52:03.980Z,100163.88
2023-03-16T08:54:32.516Z,100151.53
2023-03-16T08:57:00.416Z,100140.88
2023-03-16T08:59:30.524Z,100144.13
2023-03-16T09:01:58.688Z,100142.44
2023-03-16T09:04:28.303Z,100146.34
2023-03-16T09:07:07.926Z,100154.88
2023-03-16T09:09:36.500Z,100139.97
2023-03-16T09:12:05.918Z,100139.78
2023-03-16T09:14:33.885Z,100140.88
2023-03-16T09:17:01.513Z,100144.13
2023-03-16T09:19:44.278Z,100143.41
2023-03-16T09:22:18.322Z,100147.53
2023-03-16T09:24:46.008Z,100143.66
2023-03-16T09:27:13.712Z,100148.75
2023-03-16T09:29:42.535Z,100153.94
2023-03-16T09:32:11.108Z,100143.94
2023-03-16T09:34:40.267Z,100147.22
2023-03-16T09:37:08.155Z,100069.47
2023-03-16T09:39:37.084Z,100148.16
2023-03-16T09:42:14.923Z,100147.56
2023-03-16T09:44:53.662Z,100139.34
2023-03-16T09:47:27.225Z,100136.53
2023-03-16T09:49:58.132Z,100143.44
2023-03-16T09:52:33.563Z,100140.34
2023-03-16T09:55:06.368Z,100134.44
2023-03-16T09:57:36.764Z,100135.84
2023-03-16T10:00:17.207Z,100133.56
2023-03-16T10:03:06.316Z,100124.31
2023-03-16T10:05:36.827Z,100124.75
2023-03-16T10:08:13.061Z,100122.91
2023-03-16T10:10:56.647Z,100129.19
2023-03-16T10:13:32.234Z,100125.63
2023-03-16T10:16:02.937Z,100128.00
2023-03-16T10:18:34.880Z,100072.88
2023-03-16T10:21:04.474Z,100099.91
2023-03-16T10:23:34.298Z,100106.88
2023-03-16T10:26:12.953Z,100113.31
2023-03-16T10:28:42.335Z,100111.69
2023-03-16T10:31:12.116Z,100108.38
2023-03-16T10:33:40.450Z,100104.63
2023-03-16T10:36:30.465Z,100112.16
2023-03-16T10:38:59.675Z,100110.94
2023-03-16T10:41:31.199Z,100106.41
2023-03-16T10:44:07.104Z,100101.94
2023-03-16T10:46:39.520Z,100106.84
2023-03-16T10:49:20.495Z,100104.53
2023-03-16T10:51:50.153Z,100103.03
2023-03-16T10:54:26.051Z,100093.13
2023-03-16T10:56:53.728Z,100103.03
2023-03-16T10:59:30.259Z,100097.06
2023-03-16T11:01:58.226Z,100077.84
2023-03-16T11:04:26.554Z,100088.53
2023-03-16T11:06:57.602Z,100091.03
2023-03-16T11:09:28.101Z,100077.22
2023-03-16T11:11:55.740Z,100078.19
2023-03-16T11:14:28.224Z,100069.91
2023-03-16T11:17:04.259Z,100078.91
2023-03-16T11:19:35.616Z,100068.50
2023-03-16T11:22:09.522Z,100076.84
2023-03-16T11:24:46.603Z,100073.34
2023-03-16T11:27:23.264Z,100075.94
2023-03-16T11:30:05.470Z,100076.78
2023-03-16T11:32:37.260Z,100069.03
2023-03-16T11:35:14.149Z,100055.09
2023-03-16T11:37:56.852Z,100053.94
2023-03-16T11:40:40.097Z,100048.44
2023-03-16T11:43:21.707Z,100062.81
2023-03-16T11:46:03.614Z,100051.63
2023-03-16T11:48:40.243Z,100065.53
2023-03-16T11:51:16.653Z,100043.66
2023-03-16T11:54:07.724Z,100052.03
2023-03-16T11:56:41.000Z,100049.09
2023-03-16T11:59:35.984Z,100045.91
2023-03-16T12:02:21.316Z,100038.03
2023-03-16T12:05:11.564Z,100029.78
2023-03-16T12:07:52.591Z,100030.19
2023-03-16T12:10:27.093Z,100012.00
2023-03-16T12:13:03.186Z,100032.06
2023-03-16T12:15:38.369Z,100022.25
2023-03-16T12:18:15.703Z,100012.44
2023-03-16T12:20:51.414Z,100006.50
2023-03-16T12:23:23.276Z,100001.38
2023-03-16T12:25:54.362Z,99992.75
2023-03-16T12:28:26.584Z,99990.38
2023-03-16T12:31:09.876Z,99990.38
2023-03-16T12:33:49.798Z,99997.00
2023-03-16T12:36:45.386Z,99982.88
2023-03-16T12:39:18.598Z,99983.25
2023-03-16T12:41:59.559Z,99987.25
2023-03-16T12:44:36.603Z,99991.16
2023-03-16T12:47:15.259Z,99978.53
2023-03-16T12:49:43.342Z,99979.19
2023-03-16T12:52:13.497Z,99973.22
2023-03-16T12:54:51.673Z,99989.53
2023-03-16T12:57:25.820Z,99980.53
2023-03-16T12:59:58.546Z,99965.13
2023-03-16T13:02:30.133Z,99954.84
2023-03-16T13:05:01.959Z,99922.91
2023-03-16T13:07:33.349Z,99948.88
2023-03-16T13:10:04.546Z,99950.88
2023-03-16T13:12:37.057Z,99943.44
2023-03-16T13:15:26.600Z,99942.66
2023-03-16T13:18:06.462Z,99937.50
2023-03-16T13:20:35.825Z,99938.31
2023-03-16T13:23:23.151Z,99929.97
2023-03-16T13:26:13.999Z,99920.13
2023-03-16T13:28:46.998Z,99927.97
2023-03-16T13:31:25.173Z,99931.16
2023-03-16T13:33:55.606Z,99926.41
2023-03-16T13:36:24.246Z,99908.25
2023-03-16T13:39:05.465Z,99923.97
2023-03-16T13:41:33.099Z,99919.66
2023-03-16T13:44:02.092Z,99926.34
2023-03-16T13:46:31.703Z,99907.38
2023-03-16T13:49:01.051Z,99913.00
2023-03-16T13:51:32.013Z,99896.41
2023-03-16T13:53:59.736Z,99906.28
2023-03-16T13:56:29.337Z,99879.50
2023-03-16T13:58:59.384Z,99888.19
2023-03-16T14:01:31.983Z,99887.72
2023-03-16T14:04:05.607Z,99845.97
2023-03-16T14:06:35.235Z,99882.63
2023-03-16T14:09:06.292Z,99874.63
2023-03-16T14:11:34.043Z,99881.47
2023-03-16T14:14:02.111Z,99883.47
2023-03-16T14:16:32.031Z,99880.34
2023-03-16T14:19:03.714Z,99867.69
2023-03-16T14:21:34.915Z,99877.56
2023-03-16T14:24:05.312Z,99867.69
2023-03-16T14:26:41.685Z,99871.22
2023-03-16T14:29:19.398Z,99865.31
2023-03-16T14:31:49.550Z,99864.09
2023-03-16T14:34:30.120Z,99864.44
2023-03-16T14:37:08.761Z,99860.13
2023-03-16T14:39:40.566Z,99852.91
2023-03-16T14:42:16.059Z,99860.56
2023-03-16T14:44:43.693Z,99859.34
2023-03-16T14:47:22.574Z,99851.31
2023-03-16T14:49:50.371Z,99857.56
2023-03-16T14:52:25.377Z,99851.31
2023-03-16T14:54:54.936Z,99845.06
2023-03-16T14:57:23.023Z,99843.94
2023-03-16T14:59:51.104Z,99838.84
2023-03-16T15:02:24.069Z,99842.84
2023-03-16T15:04:52.544Z,99845.22
2023-03-16T15:07:25.015Z,99834.16
2023-03-16T15:09:55.487Z,99831.84
2023-03-16T15:12:24.994Z,99834.59
2023-03-16T15:15:06.688Z,99827.91
2023-03-16T15:17:35.720Z,99832.63
2023-03-16T15:20:05.188Z,99823.16
2023-03-16T15:22:35.457Z,99841.69
2023-03-16T15:25:19.374Z,99838.16
2023-03-16T15:27:47.966Z,99832.25
2023-03-16T15:30:17.773Z,99832.22
2023-03-16T15:32:47.050Z,99820.81
2023-03-16T15:35:14.839Z,99815.69
2023-03-16T15:37:42.691Z,99819.22
2023-03-16T15:40:18.740Z,99816.88
2023-03-16T15:42:46.988Z,99821.63
2023-03-16T15:45:18.553Z,99808.19
2023-03-16T15:47:48.354Z,99818.03
2023-03-16T15:50:17.890Z,99811.34
2023-03-16T15:52:48.935Z,99799.16
2023-03-16T15:55:22.621Z,99802.66
2023-03-16T15:57:57.545Z,99790.47
2023-03-16T16:00:31.742Z,99790.00
2023-03-16T16:03:02.042Z,99791.13
2023-03-16T16:05:30.635Z,99786.84
2023-03-16T16:07:58.653Z,99785.66
2023-03-16T16:10:28.579Z,99772.25
2023-03-16T16:12:57.906Z,99779.00
2023-03-16T16:15:29.355Z,99777.41
2023-03-16T16:18:19.820Z,99752.91
2023-03-16T16:20:46.934Z,99759.63
2023-03-16T16:23:14.673Z,99763.13
2023-03-16T16:25:43.452Z,99756.06
2023-03-16T16:28:16.405Z,99743.84
2023-03-16T16:30:44.978Z,99762.31
2023-03-16T16:33:25.922Z,99768.13
2023-03-16T16:35:56.615Z,99766.19
2023-03-16T16:38:24.984Z,99764.97
2023-03-16T16:40:54.428Z,99772.00
2023-03-16T16:43:32.864Z,99772.34
2023-03-16T16:46:01.546Z,99766.03
2023-03-16T16:48:33.308Z,99747.06
2023-03-16T16:51:02.552Z,99754.50
2023-03-16T16:53:30.972Z,99753.31
2023-03-16T16:55:58.681Z,99754.44
2023-03-16T16:58:26.355Z,99747.66
2023-03-16T17:00:56.757Z,99749.44
2023-03-16T17:03:26.997Z,99752.13
2023-03-16T17:05:55.995Z,99729.31
2023-03-16T17:08:25.740Z,99710.66
2023-03-16T17:10:54.819Z,99753.16
2023-03-16T17:13:27.784Z,99756.31
2023-03-16T17:15:55.895Z,99765.41
2023-03-16T17:18:24.330Z,99760.88
2023-03-16T17:20:52.384Z,99756.94
2023-03-16T17:23:39.414Z,99754.16
2023-03-16T17:26:14.732Z,99753.69
2023-03-16T17:28:46.471Z,99744.09
2023-03-16T17:31:20.247Z,99747.50
2023-03-16T17:33:47.904Z,99745.47
2023-03-16T17:36:18.170Z,99746.00
2023-03-16T17:38:47.846Z,99744.28
2023-03-16T17:41:23.075Z,99737.66
2023-03-16T17:43:51.329Z,99733.19
2023-03-16T17:46:21.361Z,99725.63
2023-03-16T17:48:50.822Z,99731.03
2023-03-16T17:51:21.044Z,99729.78
2023-03-16T17:53:50.307Z,99728.34
2023-03-16T17:56:20.437Z,99720.38
2023-03-16T17:58:51.122Z,99717.22
2023-03-16T18:01:21.454Z,99728.53
2023-03-16T18:03:49.174Z,99723.75
2023-03-16T18:06:20.742Z,99687.34
2023-03-16T18:08:50.388Z,99703.56
2023-03-16T18:11:21.572Z,99712.94
2023-03-16T18:13:50.548Z,99710.69
2023-03-16T18:16:23.119Z,99700.13
2023-03-16T18:19:00.744Z,99703.28
2023-03-16T18:21:28.583Z,99702.59
2023-03-16T18:23:57.911Z,99700.53
2023-03-16T18:26:26.293Z,99607.28
2023-03-16T18:28:55.421Z,99698.41
2023-03-16T18:31:25.686Z,99697.97
2023-03-16T18:33:55.966Z,99689.66
2023-03-16T18:36:28.144Z,99687.19
2023-03-16T18:38:59.447Z,99691.81
2023-03-16T18:41:29.136Z,99689.94
2023-03-16T18:44:00.365Z,99676.97
2023-03-16T18:46:31.300Z,99688.09
2023-03-16T18:49:01.935Z,99677.28
2023-03-16T18:51:31.111Z,99663.16
2023-03-16T18:54:00.139Z,99680.78
2023-03-16T18:56:29.434Z,99689.06
2023-03-16T18:58:57.829Z,99683.06
2023-03-16T19:01:28.282Z,99682.28
2023-03-16T19:03:57.734Z,99681.03
2023-03-16T19:06:30.381Z,99681.56
2023-03-16T19:09:07.622Z,99677.84
2023-03-16T19:11:39.833Z,99681.84
2023-03-16T19:14:26.737Z,99678.34
2023-03-16T19:17:26.304Z,99668.97
2023-03-16T19:23:48.746Z,99676.72
2023-03-16T19:26:18.088Z,99664.22
2023-03-16T19:29:25.649Z,99664.66
2023-03-16T19:40:29.382Z,99672.22
2023-03-16T19:50:44.243Z,99654.53
2023-03-16T19:53:17.888Z,99649.88
2023-03-16T19:55:47.856Z,99649.34
2023-03-16T19:58:21.832Z,99656.06
2023-03-16T20:00:49.596Z,99662.44
2023-03-16T20:03:18.640Z,99650.94
2023-03-16T20:05:46.256Z,99659.06
2023-03-16T20:08:21.437Z,99659.09
2023-03-16T20:10:49.554Z,99664.09
2023-03-16T20:13:18.287Z,99601.31
2023-03-16T20:15:46.456Z,99656.72
2023-03-16T20:18:17.137Z,99651.16
2023-03-16T20:20:47.218Z,99645.28
2023-03-16T20:23:19.513Z,99643.28
2023-03-16T20:25:48.460Z,99629.28
2023-03-16T20:28:20.588Z,99630.44
2023-03-16T20:30:49.604Z,99624.28
2023-03-16T20:33:19.948Z,99616.81
2023-03-16T20:35:50.825Z,99628.50
2023-03-16T20:38:18.464Z,99632.47
2023-03-16T20:40:49.195Z,99634.34
2023-03-16T20:43:23.639Z,99629.84
2023-03-16T20:45:51.519Z,99635.84
2023-03-16T20:48:20.107Z,99633.94
2023-03-16T20:50:49.742Z,99628.88
2023-03-16T20:53:17.361Z,99624.88
2023-03-16T20:55:45.152Z,99627.72
2023-03-16T20:58:21.733Z,99616.72
2023-03-16T21:00:51.133Z,99613.59
2023-03-16T21:03:22.309Z,99615.88
2023-03-16T21:05:52.653Z,99610.09
2023-03-16T21:08:20.716Z,99619.81
2023-03-16T21:10:51.108Z,99626.03
2023-03-16T21:13:21.378Z,99623.16
2023-03-16T21:15:50.630Z,99613.25
2023-03-16T21:18:21.486Z,99620.00
2023-03-16T21:20:52.934Z,99629.84
2023-03-16T21:23:23.222Z,99579.28
2023-03-16T21:25:54.692Z,99622.72
2023-03-16T21:28:24.806Z,99619.97
2023-03-16T21:30:54.614Z,99615.75
2023-03-16T21:33:29.798Z,99593.34
2023-03-16T21:36:00.307Z,99609.31
2023-03-16T21:38:29.708Z,99619.81
2023-03-16T21:40:57.730Z,99623.56
2023-03-16T21:43:26.684Z,99624.31
2023-03-16T21:45:55.029Z,99621.94
2023-03-16T21:48:24.790Z,99622.78
2023-03-16T21:50:53.778Z,99616.81
2023-03-16T21:53:24.927Z,99611.72
2023-03-16T21:55:53.309Z,99614.84
2023-03-16T21:58:22.126Z,99616.91
2023-03-16T22:00:51.721Z,99613.88
2023-03-16T22:03:37.764Z,99611.53
2023-03-16T22:06:15.662Z,99617.47
2023-03-16T22:08:44.722Z,99616.31
2023-03-16T22:11:17.217Z,99612.31
2023-03-16T22:13:46.376Z,99605.31
2023-03-16T22:16:17.142Z,99610.81
2023-03-16T22:18:46.966Z,99610.72
2023-03-16T22:21:33.308Z,99602.28
2023-03-16T22:24:05.210Z,99602.47
2023-03-16T22:26:33.140Z,99601.81
2023-03-16T22:29:01.804Z,99588.44
2023-03-16T22:31:33.824Z,99583.00
2023-03-16T22:34:02.616Z,99587.59
2023-03-16T22:36:32.809Z,99575.81
2023-03-16T22:39:12.211Z,99567.91
2023-03-16T22:41:40.050Z,99575.38
2023-03-16T22:44:17.944Z,99582.09
2023-03-16T22:46:45.575Z,99530.03
2023-03-16T22:49:21.135Z,99518.22
2023-03-16T22:51:50.529Z,99568.41
2023-03-16T22:54:23.076Z,99576.91
2023-03-16T22:56:51.276Z,99568.78
2023-03-16T22:59:22.031Z,99565.19
2023-03-16T23:01:51.153Z,99542.00
2023-03-16T23:04:20.876Z,99579.84
2023-03-16T23:06:49.948Z,99568.81
2023-03-16T23:09:20.710Z,99560.81
2023-03-16T23:11:52.331Z,99557.78
2023-03-16T23:14:23.111Z,99549.78
2023-03-16T23:16:52.435Z,99539.59
2023-03-16T23:19:25.205Z,99539.31
2023-03-16T23:21:54.757Z,99544.78
2023-03-16T23:24:24.173Z,99543.22
2023-03-16T23:26:52.999Z,99541.41
2023-03-16T23:29:21.617Z,99539.88
2023-03-16T23:31:49.612Z,99513.84
2023-03-16T23:34:21.274Z,99527.28
2023-03-16T23:36:50.180Z,99534.22
2023-03-16T23:39:17.960Z,99539.38
2023-03-16T23:41:49.356Z,99408.94
2023-03-16T23:44:20.223Z,99532.09
2023-03-16T23:46:47.894Z,99532.19
2023-03-16T23:49:26.186Z,99521.06
2023-03-16T23:51:56.643Z,99526.56
2023-03-16T23:54:26.034Z,99528.31
2023-03-16T23:56:55.141Z,99527.63
2023-03-16T23:59:23.462Z,99497.22
